Boras — TCGU — position and weather

sailwx.info

Track history (hours):
 
Tides and Currents Weather Stations Pressure Air Temp Water Temp Dewpoint Dewpoint Depression Visibility Wind Speed Wind Dir Waves Ship Positions

Boras

Last reported at 2016-Jun-11 16:31 UTC. Time now 2016-Jun-26 19:16 UTC.
Position N 40°59' E 028°60'.
Warning: this ship's position is 15 days out of date.

Length 103 m; draft 6.8 m.

Type: Cargo ship. MMSI: 271000352.

Date/timePositionNaut miles runAvg speedWind from/ knotsBaromVisibWave heightAir tempDewpointWater temp
2016-Jun-11 16:31N 40°59' E 028°60'6 5.2
2016-Jun-11 15:21N 40°53' E 029°01'5 6.2
2016-Jun-11 14:33N 40°50' E 029°06'4 3.9
2016-Jun-11 13:33N 40°52' E 029°11'0 0.0
2016-Jun-11 11:09N 40°52' E 029°11'0 0.0
2016-Jun-11 10:30N 40°52' E 029°11'0 0.0
2016-Jun-11 06:30N 40°52' E 029°11'0 0.0
2016-Jun-11 05:32N 40°52' E 029°11'0 0.0
2016-Jun-11 04:33N 40°52' E 029°11'0 0.0
2016-Jun-11 03:33N 40°52' E 029°11'0 0.0
2016-Jun-11 02:32N 40°52' E 029°11'0 0.0
2016-Jun-11 01:31N 40°52' E 029°11'0 0.0
2016-Jun-11 00:29N 40°52' E 029°11'0 0.0
2016-Jun-10 23:33N 40°52' E 029°11'0 0.0
2016-Jun-10 22:30N 40°52' E 029°11'0 0.0
2016-Jun-10 21:31N 40°52' E 029°11'0 0.0
2016-Jun-10 20:32N 40°52' E 029°11'0 0.0
2016-Jun-10 19:26N 40°52' E 029°11'0 0.1
2016-Jun-10 18:32N 40°52' E 029°11'0 0.0
2016-Jun-10 17:24N 40°52' E 029°11'0 0.0
2016-Jun-10 16:07N 40°52' E 029°11'0 0.0
2016-Jun-10 15:19N 40°52' E 029°11'0 0.0
2016-Jun-10 14:29N 40°52' E 029°11'0 0.1
2016-Jun-10 13:29N 40°52' E 029°11'0 0.0
2016-Jun-10 12:29N 40°52' E 029°11'0 0.0
2016-Jun-10 11:29N 40°52' E 029°11'0 0.0
2016-Jun-10 10:32N 40°52' E 029°11'0 0.0
2016-Jun-10 09:33N 40°52' E 029°11'0 0.0
2016-Jun-10 08:27N 40°52' E 029°11'0 0.0
2016-Jun-10 07:23N 40°52' E 029°11'0 0.0
2016-Jun-10 06:30N 40°52' E 029°11'0 0.0
2016-Jun-10 04:32N 40°52' E 029°11'0 0.0
2016-Jun-10 03:26N 40°52' E 029°11'0 0.0
2016-Jun-10 02:24N 40°52' E 029°11'0 0.0
2016-Jun-10 01:28N 40°52' E 029°11'0 0.2
2016-Jun-10 00:33N 40°51' E 029°11'6 6.3
2016-Jun-09 23:33N 40°46' E 029°15'14 7.2
2016-Jun-09 21:33N 40°45' E 029°34'  
2016-Jun-07 10:31N 40°44' E 029°23'8 7.8
2016-Jun-07 09:33N 40°46' E 029°13'8 8.1
2016-Jun-07 08:33N 40°49' E 029°03'  
2016-Jun-03 07:33N 40°58' E 028°60'6 5.6
2016-Jun-03 06:29N 40°53' E 029°01'6 6.6
2016-Jun-03 05:33N 40°50' E 029°08'2 2.1
2016-Jun-03 04:27N 40°51' E 029°11'0 0.0
2016-Jun-03 03:24N 40°51' E 029°11'0 0.0
2016-Jun-03 02:27N 40°51' E 029°11'0 0.0
2016-Jun-03 01:28N 40°51' E 029°11'0 0.0
2016-Jun-03 00:30N 40°51' E 029°11'0 0.0
2016-Jun-02 23:29N 40°51' E 029°11'0 0.0
2016-Jun-02 22:29N 40°51' E 029°11'4 4.6
2016-Jun-02 21:33N 40°47' E 029°13'8 7.2
2016-Jun-02 20:26N 40°45' E 029°23'  
Track history (hours):
 
Tides and Currents Weather Stations Pressure Air Temp Water Temp Dewpoint Dewpoint Depression Visibility Wind Speed Wind Dir Waves Ship Positions

Boras

Last reported at 2016-Jun-11 16:31 UTC. Time now 2016-Jun-26 19:16 UTC.
Position N 40°59' E 028°60'.
Warning: this ship's position is 15 days out of date.

Length 103 m; draft 6.8 m.

Type: Cargo ship. MMSI: 271000352.

Date/timePositionNaut miles runAvg speedWind from/ knotsBaromVisibWave heightAir tempDewpointWater temp
2016-Jun-11 16:31N 40°59' E 028°60'6 5.2
2016-Jun-11 15:21N 40°53' E 029°01'5 6.2
2016-Jun-11 14:33N 40°50' E 029°06'4 3.9
2016-Jun-11 13:33N 40°52' E 029°11'0 0.0
2016-Jun-11 11:09N 40°52' E 029°11'0 0.0
2016-Jun-11 10:30N 40°52' E 029°11'0 0.0
2016-Jun-11 06:30N 40°52' E 029°11'0 0.0
2016-Jun-11 05:32N 40°52' E 029°11'0 0.0
2016-Jun-11 04:33N 40°52' E 029°11'0 0.0
2016-Jun-11 03:33N 40°52' E 029°11'0 0.0
2016-Jun-11 02:32N 40°52' E 029°11'0 0.0
2016-Jun-11 01:31N 40°52' E 029°11'0 0.0
2016-Jun-11 00:29N 40°52' E 029°11'0 0.0
2016-Jun-10 23:33N 40°52' E 029°11'0 0.0
2016-Jun-10 22:30N 40°52' E 029°11'0 0.0
2016-Jun-10 21:31N 40°52' E 029°11'0 0.0
2016-Jun-10 20:32N 40°52' E 029°11'0 0.0
2016-Jun-10 19:26N 40°52' E 029°11'0 0.1
2016-Jun-10 18:32N 40°52' E 029°11'0 0.0
2016-Jun-10 17:24N 40°52' E 029°11'0 0.0
2016-Jun-10 16:07N 40°52' E 029°11'0 0.0
2016-Jun-10 15:19N 40°52' E 029°11'0 0.0
2016-Jun-10 14:29N 40°52' E 029°11'0 0.1
2016-Jun-10 13:29N 40°52' E 029°11'0 0.0
2016-Jun-10 12:29N 40°52' E 029°11'0 0.0
2016-Jun-10 11:29N 40°52' E 029°11'0 0.0
2016-Jun-10 10:32N 40°52' E 029°11'0 0.0
2016-Jun-10 09:33N 40°52' E 029°11'0 0.0
2016-Jun-10 08:27N 40°52' E 029°11'0 0.0
2016-Jun-10 07:23N 40°52' E 029°11'0 0.0
2016-Jun-10 06:30N 40°52' E 029°11'0 0.0
2016-Jun-10 04:32N 40°52' E 029°11'0 0.0
2016-Jun-10 03:26N 40°52' E 029°11'0 0.0
2016-Jun-10 02:24N 40°52' E 029°11'0 0.0
2016-Jun-10 01:28N 40°52' E 029°11'0 0.2
2016-Jun-10 00:33N 40°51' E 029°11'6 6.3
2016-Jun-09 23:33N 40°46' E 029°15'14 7.2
2016-Jun-09 21:33N 40°45' E 029°34'  
2016-Jun-07 10:31N 40°44' E 029°23'8 7.8
2016-Jun-07 09:33N 40°46' E 029°13'8 8.1
2016-Jun-07 08:33N 40°49' E 029°03'  
2016-Jun-03 07:33N 40°58' E 028°60'6 5.6
2016-Jun-03 06:29N 40°53' E 029°01'6 6.6
2016-Jun-03 05:33N 40°50' E 029°08'2 2.1
2016-Jun-03 04:27N 40°51' E 029°11'0 0.0
2016-Jun-03 03:24N 40°51' E 029°11'0 0.0
2016-Jun-03 02:27N 40°51' E 029°11'0 0.0
2016-Jun-03 01:28N 40°51' E 029°11'0 0.0
2016-Jun-03 00:30N 40°51' E 029°11'0 0.0
2016-Jun-02 23:29N 40°51' E 029°11'0 0.0
2016-Jun-02 22:29N 40°51' E 029°11'4 4.6
2016-Jun-02 21:33N 40°47' E 029°13'8 7.2
2016-Jun-02 20:26N 40°45' E 029°23'  

Dump ship's entire track history